METAR ET TAF INFORMATION
METAR FOR LFKJ
ADDS - METARS form results

(2318 UTC 17 September 2019)
Data provider http://aviationweather.gov/metar/data/
 
METAR text: LFKJ 172300Z AUTO 04004KT CAVOK 18/13 Q1015 NOSIG
Conditions at: LFKJ (AJACCIO/CAMPO OR, FR) observed 2300 UTC 17 September 2019
Temperature: 18.0°C (64°F)
Dewpoint: 13.0°C (55°F) [RH = 73%]
Pressure (altimeter): 29.97 inches Hg (1015.0 mb)
Winds: from the NE (40 degrees) at 5 MPH (4 knots; 2.1 m/s)
Visibility: 6 or more miles (10+ km)
Ceiling: ceiling and visibility are OK
Clouds: unknown
Weather: no significant weather observed at this time

METAR text: LFKJ 172230Z AUTO 08003KT CAVOK 18/13 Q1015 NOSIG
Conditions at: LFKJ (AJACCIO/CAMPO OR, FR) observed 2230 UTC 17 September 2019
Temperature: 18.0°C (64°F)
Dewpoint: 13.0°C (55°F) [RH = 73%]
Pressure (altimeter): 29.97 inches Hg (1015.0 mb)
Winds: from the E (80 degrees) at 3 MPH (3 knots; 1.5 m/s)
Visibility: 6 or more miles (10+ km)
Ceiling: ceiling and visibility are OK
Clouds: unknown
Weather: no significant weather observed at this time

Forecast for: LFKJ (AJACCIO/CAMPO OR, FR)
Text: TAF LFKJ 172000Z 1721/1821 04004KT CAVOK
Forecast period: 2100 UTC 17 September 2019 to 0800 UTC 18 September 2019
Forecast type: FROM: standard forecast or significant change
Winds: from the NE (40 degrees) at 5 MPH (4 knots; 2.1 m/s)
Visibility: 6 or more miles 10+ km)
Ceiling: unknown
Clouds: missing
Weather: NSW  (no significant weather)
Text: BECMG 1808/1810 24010KT
Forecast period: 0800 to 1800 UTC 18 September 2019
Forecast type: BECOMING: Conditions expected to become as follows by 1000 UTC 18 September 2019
Winds: from the WSW (240 degrees) at 12 MPH (10 knots; 5.1 m/s)
Visibility: 6 or more miles 10+ km)
Ceiling: unknown
Clouds: missing
Weather: NSW  (no significant weather)
Text: BECMG 1818/1820 05005KT
Forecast period: 1800 to 2100 UTC 18 September 2019
Forecast type: BECOMING: Conditions expected to become as follows by 2000 UTC 18 September 2019
Winds: from the NE (50 degrees) at 6 MPH (5 knots; 2.6 m/s)
Visibility: 6 or more miles 10+ km)
Ceiling: unknown
Clouds: missing
Weather: NSW  (no significant weather)

 AÉROPORT DE AÉROPORT

 INFORMATIONS DE PISTE
Piste 02 Longueur de la piste 7897 ft Largeur de la piste 148 ft
Élévation de la piste 15 ft Seuil de la piste déplacés 0 ft Runway heading 25
Piste 20 Longueur de la piste 7897 ft Largeur de la piste 148 ft
Élévation de la piste 18 ft Seuil de la piste déplacés 744 ft Runway heading 205

 AÉROPORT FRÉQUENCES
Type AFIS Nom AFIS Féquence 119.825 MHZ
Type APP Nom AJACCIO AP Féquence 121.05 MHZ
Type ATIS Nom AJACCIO AT Féquence 126.925 MHZ
Type GND Nom AJACCIO GN Féquence 121.7 MHZ
Type TWR Nom AJACCIO TW Féquence 118.075 MHZ

 SIDA DE NAVIGATION
Type NDB Nom Ajaccio/Campo Dell Oro Féquence 341 KHZ



Powered by Virtual Airlines Manager [v2.6.2]